createdAt,value
2018-05-07T00:00:14.107Z,13.23
2018-05-07T00:01:14.075Z,13.22
2018-05-07T00:02:13.917Z,13.25
2018-05-07T00:03:13.843Z,13.14
2018-05-07T00:04:13.756Z,13.33
2018-05-07T00:05:13.684Z,13.22
2018-05-07T00:06:13.762Z,13.29
2018-05-07T00:07:13.520Z,13.19
2018-05-07T00:08:13.468Z,13.20
2018-05-07T00:09:13.379Z,13.25
2018-05-07T00:10:13.339Z,13.22
2018-05-07T00:11:13.206Z,13.30
2018-05-07T00:12:13.132Z,13.28
2018-05-07T00:13:13.076Z,13.19
2018-05-07T00:14:12.968Z,13.23
2018-05-07T00:15:12.882Z,13.11
2018-05-07T00:16:12.807Z,13.08
2018-05-07T00:17:12.734Z,13.11
2018-05-07T00:18:12.647Z,13.11
2018-05-07T00:19:12.572Z,13.03
2018-05-07T00:20:12.496Z,13.07
2018-05-07T00:21:12.407Z,13.08
2018-05-07T00:22:12.336Z,13.04
2018-05-07T00:23:12.264Z,12.93
2018-05-07T00:24:12.169Z,12.93
2018-05-07T00:25:12.097Z,12.90
2018-05-07T00:26:12.025Z,12.89
2018-05-07T00:27:11.936Z,12.85
2018-05-07T00:28:11.860Z,12.82
2018-05-07T00:29:11.773Z,12.79
2018-05-07T00:30:11.700Z,12.79
2018-05-07T00:31:11.625Z,12.79
2018-05-07T00:32:11.536Z,12.77
2018-05-07T00:33:11.515Z,12.74
2018-05-07T00:34:11.385Z,12.64
2018-05-07T00:35:11.296Z,12.68
2018-05-07T00:36:11.222Z,12.65
2018-05-07T00:37:11.152Z,12.62
2018-05-07T00:38:11.061Z,12.57
2018-05-07T00:39:10.987Z,12.65
2018-05-07T00:40:10.899Z,12.54
2018-05-07T00:41:10.835Z,12.50
2018-05-07T00:42:10.747Z,12.46
2018-05-07T00:43:10.660Z,12.42
2018-05-07T00:44:10.585Z,12.49
2018-05-07T00:45:10.512Z,12.41
2018-05-07T00:46:10.437Z,12.32
2018-05-07T00:47:10.350Z,12.34
2018-05-07T00:48:10.262Z,12.34
2018-05-07T00:49:10.186Z,12.32
2018-05-07T00:50:10.111Z,12.37
2018-05-07T00:51:10.036Z,12.34
2018-05-07T00:52:09.948Z,12.24
2018-05-07T00:53:09.876Z,12.24
2018-05-07T00:54:09.788Z,12.17
2018-05-07T00:55:09.714Z,12.28
2018-05-07T00:56:09.639Z,12.20
2018-05-07T00:57:09.549Z,12.20
2018-05-07T00:58:09.474Z,12.17
2018-05-07T00:59:09.387Z,12.16
2018-05-07T01:00:09.312Z,12.23
2018-05-07T01:01:09.239Z,12.27
2018-05-07T01:02:09.149Z,12.23
2018-05-07T01:03:09.074Z,12.21
2018-05-07T01:04:09.001Z,12.16
2018-05-07T01:05:08.914Z,12.23
2018-05-07T01:06:08.840Z,12.17
2018-05-07T01:07:08.751Z,12.14
2018-05-07T01:08:08.677Z,12.14
2018-05-07T01:09:08.588Z,12.17
2018-05-07T01:10:08.513Z,12.10
2018-05-07T01:11:08.438Z,12.05
2018-05-07T01:12:08.351Z,12.14
2018-05-07T01:13:08.290Z,12.10
2018-05-07T01:14:08.202Z,11.99
2018-05-07T01:15:08.122Z,12.10
2018-05-07T01:16:08.046Z,12.05
2018-05-07T01:17:07.953Z,12.09
2018-05-07T01:18:07.877Z,12.13
2018-05-07T01:19:07.803Z,12.07
2018-05-07T01:20:07.716Z,12.10
2018-05-07T01:21:07.639Z,12.12
2018-05-07T01:22:07.555Z,12.13
2018-05-07T01:23:07.477Z,12.12
2018-05-07T01:24:07.401Z,12.09
2018-05-07T01:25:07.317Z,12.01
2018-05-07T01:26:07.242Z,12.01
2018-05-07T01:27:07.154Z,12.05
2018-05-07T01:28:07.079Z,11.96
2018-05-07T01:29:07.002Z,11.99
2018-05-07T01:30:06.916Z,11.99
2018-05-07T01:31:06.840Z,11.95
2018-05-07T01:32:06.753Z,11.96
2018-05-07T01:33:06.677Z,12.01
2018-05-07T01:34:06.607Z,11.96
2018-05-07T01:35:06.516Z,11.99
2018-05-07T01:36:06.441Z,11.94
2018-05-07T01:37:06.386Z,11.96
2018-05-07T01:38:06.280Z,11.98
2018-05-07T01:39:06.205Z,11.91
2018-05-07T01:40:06.119Z,11.94
2018-05-07T01:41:06.042Z,11.86
2018-05-07T01:42:05.970Z,11.82
2018-05-07T01:43:05.878Z,11.82
2018-05-07T01:44:05.803Z,11.86
2018-05-07T01:45:05.720Z,11.85
2018-05-07T01:46:05.645Z,11.83
2018-05-07T01:47:05.565Z,11.78
2018-05-07T01:48:05.481Z,11.78
2018-05-07T01:49:05.407Z,11.80
2018-05-07T01:50:05.319Z,11.73
2018-05-07T01:51:05.245Z,11.64
2018-05-07T01:52:05.158Z,11.72
2018-05-07T01:53:05.080Z,11.67
2018-05-07T01:54:05.006Z,11.70
2018-05-07T01:55:04.918Z,11.57
2018-05-07T01:56:04.844Z,11.62
2018-05-07T01:57:04.759Z,11.54
2018-05-07T01:58:04.683Z,11.57
2018-05-07T01:59:04.623Z,11.54
2018-05-07T02:00:04.521Z,11.47
2018-05-07T02:01:04.445Z,11.49
2018-05-07T02:02:04.357Z,11.58
2018-05-07T02:03:04.281Z,11.57
2018-05-07T02:04:04.206Z,11.57
2018-05-07T02:05:04.120Z,11.49
2018-05-07T02:06:04.044Z,11.47
2018-05-07T02:07:03.957Z,11.54
2018-05-07T02:08:03.881Z,11.47
2018-05-07T02:09:03.809Z,11.43
2018-05-07T02:10:03.723Z,11.44
2018-05-07T02:11:03.651Z,11.43
2018-05-07T02:12:03.559Z,11.43
2018-05-07T02:13:03.495Z,11.36
2018-05-07T02:14:03.407Z,11.36
2018-05-07T02:15:03.324Z,11.24
2018-05-07T02:16:03.247Z,11.27
2018-05-07T02:17:03.159Z,11.24
2018-05-07T02:18:03.086Z,11.28
2018-05-07T02:19:02.998Z,11.25
2018-05-07T02:20:02.923Z,11.24
2018-05-07T02:21:02.849Z,11.18
2018-05-07T02:22:02.760Z,11.19
2018-05-07T02:23:02.685Z,11.15
2018-05-07T02:24:02.598Z,11.09
2018-05-07T02:25:02.522Z,11.15
2018-05-07T02:26:02.447Z,11.10
2018-05-07T02:27:02.359Z,11.10
2018-05-07T02:28:02.283Z,11.14
2018-05-07T02:29:02.199Z,11.06
2018-05-07T02:30:02.125Z,11.02
2018-05-07T02:31:02.039Z,11.04
2018-05-07T02:32:01.967Z,10.99
2018-05-07T02:33:01.885Z,10.97
2018-05-07T02:34:01.798Z,11.03
2018-05-07T02:35:01.723Z,10.97
2018-05-07T02:36:01.634Z,10.99
2018-05-07T02:37:01.560Z,10.94
2018-05-07T02:38:01.473Z,10.92
2018-05-07T02:39:01.449Z,10.91
2018-05-07T02:40:01.323Z,10.92
2018-05-07T02:41:01.237Z,10.92
2018-05-07T02:42:01.162Z,10.91
2018-05-07T02:43:01.088Z,10.92
2018-05-07T02:44:01.002Z,10.92
2018-05-07T02:45:00.926Z,10.91
2018-05-07T02:46:00.836Z,10.89
2018-05-07T02:47:00.760Z,10.94
2018-05-07T02:48:00.685Z,10.91
2018-05-07T02:49:00.600Z,10.91
2018-05-07T02:50:00.514Z,10.96
2018-05-07T02:51:00.437Z,10.84
2018-05-07T02:52:00.351Z,10.89
2018-05-07T02:53:00.279Z,10.82
2018-05-07T02:54:00.188Z,10.81
2018-05-07T02:55:00.111Z,10.85
2018-05-07T02:56:00.037Z,10.85
2018-05-07T02:56:59.952Z,10.81
2018-05-07T02:57:59.877Z,10.84
2018-05-07T02:58:59.802Z,10.78
2018-05-07T02:59:59.714Z,10.84
2018-05-07T03:00:59.626Z,10.84
2018-05-07T03:01:59.550Z,10.86
2018-05-07T03:02:59.464Z,10.86
2018-05-07T03:03:59.387Z,10.79
2018-05-07T03:04:59.315Z,10.76
2018-05-07T03:05:59.228Z,10.76
2018-05-07T03:06:59.153Z,10.76
2018-05-07T03:07:59.078Z,10.71
2018-05-07T03:08:58.989Z,10.74
2018-05-07T03:09:58.916Z,10.73
2018-05-07T03:10:58.831Z,10.74
2018-05-07T03:11:58.767Z,10.68
2018-05-07T03:12:58.665Z,10.67
2018-05-07T03:13:58.588Z,10.74
2018-05-07T03:14:58.508Z,10.71
2018-05-07T03:15:58.426Z,10.68
2018-05-07T03:16:58.348Z,10.79
2018-05-07T03:17:58.267Z,10.71
2018-05-07T03:18:58.179Z,10.74
2018-05-07T03:19:58.104Z,10.66
2018-05-07T03:20:58.027Z,10.78
2018-05-07T03:21:57.938Z,10.66
2018-05-07T03:22:57.864Z,10.67
2018-05-07T03:23:57.776Z,10.68
2018-05-07T03:24:57.707Z,10.64
2018-05-07T03:25:57.618Z,10.67
2018-05-07T03:26:57.539Z,10.66
2018-05-07T03:27:57.464Z,10.66
2018-05-07T03:28:57.383Z,10.61
2018-05-07T03:29:57.306Z,10.61
2018-05-07T03:30:57.222Z,10.66
2018-05-07T03:31:57.142Z,10.59
2018-05-07T03:32:57.065Z,10.61
2018-05-07T03:33:56.979Z,10.56
2018-05-07T03:34:56.894Z,10.60
2018-05-07T03:35:56.816Z,10.60
2018-05-07T03:36:56.731Z,10.56
2018-05-07T03:37:56.656Z,10.64
2018-05-07T03:38:56.571Z,10.59
2018-05-07T03:39:56.494Z,10.60
2018-05-07T03:40:56.418Z,10.67
2018-05-07T03:41:56.332Z,10.68
2018-05-07T03:42:56.257Z,10.64
2018-05-07T03:43:56.168Z,10.71
2018-05-07T03:44:56.092Z,10.61
2018-05-07T03:45:56.006Z,10.64
2018-05-07T03:46:55.930Z,10.74
2018-05-07T03:47:55.855Z,10.74
2018-05-07T03:48:55.770Z,10.66
2018-05-07T03:49:55.694Z,10.70
2018-05-07T03:50:55.607Z,10.81
2018-05-07T03:51:55.532Z,10.78
2018-05-07T03:52:55.456Z,10.73
2018-05-07T03:53:55.367Z,10.76
2018-05-07T03:54:55.286Z,10.76
2018-05-07T03:55:55.207Z,10.68
2018-05-07T03:56:55.122Z,10.76
2018-05-07T03:57:55.058Z,10.78
2018-05-07T03:58:54.970Z,10.71
2018-05-07T03:59:54.891Z,10.68
2018-05-07T04:00:54.806Z,10.78
2018-05-07T04:01:54.718Z,10.74
2018-05-07T04:02:54.644Z,10.82
2018-05-07T04:03:54.557Z,10.79
2018-05-07T04:04:54.485Z,10.67
2018-05-07T04:05:54.398Z,10.82
2018-05-07T04:06:54.321Z,10.76
2018-05-07T04:07:54.246Z,10.82
2018-05-07T04:08:54.157Z,10.78
2018-05-07T04:09:54.082Z,10.86
2018-05-07T04:10:53.994Z,10.92
2018-05-07T04:11:53.920Z,10.88
2018-05-07T04:12:53.833Z,10.91
2018-05-07T04:13:53.758Z,10.86
2018-05-07T04:14:53.672Z,11.02
2018-05-07T04:15:53.595Z,11.02
2018-05-07T04:16:53.522Z,11.04
2018-05-07T04:17:53.439Z,11.10
2018-05-07T04:18:53.361Z,11.14
2018-05-07T04:19:53.274Z,11.18
2018-05-07T04:20:53.196Z,11.19
2018-05-07T04:21:53.110Z,11.24
2018-05-07T04:22:53.035Z,11.22
2018-05-07T04:23:52.947Z,11.37
2018-05-07T04:24:52.886Z,11.55
2018-05-07T04:25:52.799Z,11.70
2018-05-07T04:26:52.711Z,11.80
2018-05-07T04:27:52.637Z,11.83
2018-05-07T04:28:52.548Z,11.98
2018-05-07T04:29:52.486Z,12.09
2018-05-07T04:30:52.386Z,12.19
2018-05-07T04:31:52.312Z,12.17
2018-05-07T04:32:52.235Z,12.21
2018-05-07T04:33:52.147Z,12.24
2018-05-07T04:34:52.084Z,12.23
2018-05-07T04:35:51.985Z,12.34
2018-05-07T04:36:51.912Z,12.37
2018-05-07T04:37:51.826Z,12.23
2018-05-07T04:38:51.749Z,12.31
2018-05-07T04:39:51.675Z,12.31
2018-05-07T04:40:51.586Z,12.38
2018-05-07T04:41:51.515Z,12.41
2018-05-07T04:42:51.436Z,12.54
2018-05-07T04:43:51.349Z,12.56
2018-05-07T04:44:51.277Z,12.57
2018-05-07T04:45:51.186Z,12.67
2018-05-07T04:46:51.111Z,12.67
2018-05-07T04:47:51.036Z,12.71
2018-05-07T04:48:50.953Z,12.72
2018-05-07T04:49:50.875Z,12.75
2018-05-07T04:50:50.788Z,12.82
2018-05-07T04:51:50.715Z,12.89
2018-05-07T04:52:50.626Z,12.86
2018-05-07T04:53:50.548Z,12.93
2018-05-07T04:54:50.475Z,13.01
2018-05-07T04:55:50.388Z,13.05
2018-05-07T04:56:50.315Z,13.19
2018-05-07T04:57:50.228Z,13.29
2018-05-07T04:58:50.152Z,13.29
2018-05-07T04:59:50.077Z,13.32
2018-05-07T05:00:49.994Z,13.51
2018-05-07T05:01:49.915Z,13.51
2018-05-07T05:02:49.838Z,13.55
2018-05-07T05:03:49.751Z,13.57
2018-05-07T05:04:49.677Z,13.63
2018-05-07T05:05:49.602Z,13.63
2018-05-07T05:06:49.516Z,13.73
2018-05-07T05:07:49.441Z,13.84
2018-05-07T05:08:49.351Z,13.85
2018-05-07T05:09:49.275Z,13.91
2018-05-07T05:10:49.201Z,13.99
2018-05-07T05:11:49.114Z,14.09
2018-05-07T05:12:49.047Z,14.14
2018-05-07T05:13:48.966Z,14.14
2018-05-07T05:14:48.878Z,14.21
2018-05-07T05:15:48.804Z,14.20
2018-05-07T05:16:48.728Z,14.29
2018-05-07T05:17:48.641Z,14.27
2018-05-07T05:18:48.567Z,14.36
2018-05-07T05:19:48.492Z,14.43
2018-05-07T05:20:48.402Z,14.50
2018-05-07T05:21:48.329Z,14.50
2018-05-07T05:22:48.253Z,14.57
2018-05-07T05:23:48.165Z,14.55
2018-05-07T05:24:48.093Z,14.69
2018-05-07T05:25:48.017Z,14.70
2018-05-07T05:26:47.930Z,14.78
2018-05-07T05:27:47.856Z,14.80
2018-05-07T05:28:47.777Z,14.98
2018-05-07T05:29:47.703Z,14.95
2018-05-07T05:30:47.616Z,15.03
2018-05-07T05:31:47.541Z,15.06
2018-05-07T05:32:47.453Z,14.99
2018-05-07T05:33:47.379Z,15.06
2018-05-07T05:34:47.304Z,15.13
2018-05-07T05:35:47.217Z,15.13
2018-05-07T05:36:47.143Z,15.19
2018-05-07T05:37:47.069Z,15.16
2018-05-07T05:38:46.983Z,15.31
2018-05-07T05:39:46.909Z,15.41
2018-05-07T05:40:46.829Z,15.44
2018-05-07T05:41:46.755Z,15.39
2018-05-07T05:42:46.669Z,15.44
2018-05-07T05:43:46.691Z,15.51
2018-05-07T05:44:46.525Z,15.62
2018-05-07T05:45:46.433Z,15.67
2018-05-07T05:46:46.357Z,15.64
2018-05-07T05:47:46.295Z,15.74
2018-05-07T05:48:46.209Z,15.87
2018-05-07T05:49:46.128Z,15.86
2018-05-07T05:50:46.046Z,15.94
2018-05-07T05:51:45.972Z,15.97
2018-05-07T05:52:45.894Z,16.01
2018-05-07T05:53:45.805Z,16.05
2018-05-07T05:54:45.732Z,16.11
2018-05-07T05:55:45.655Z,15.97
2018-05-07T05:56:45.572Z,16.02
2018-05-07T05:57:45.496Z,16.11
2018-05-07T05:58:45.424Z,16.08
2018-05-07T05:59:45.346Z,16.15
2018-05-07T06:00:45.257Z,16.17
2018-05-07T06:01:45.182Z,16.23
2018-05-07T06:02:45.107Z,16.42
2018-05-07T06:03:45.128Z,16.31
2018-05-07T06:04:44.945Z,16.46
2018-05-07T06:05:44.871Z,16.63
2018-05-07T06:06:44.796Z,16.73
2018-05-07T06:07:44.721Z,16.70
2018-05-07T06:08:44.635Z,16.71
2018-05-07T06:09:44.561Z,16.73
2018-05-07T06:10:44.485Z,16.85
2018-05-07T06:11:44.411Z,16.85
2018-05-07T06:12:44.322Z,16.82
2018-05-07T06:13:44.246Z,16.86
2018-05-07T06:14:44.334Z,16.76
2018-05-07T06:15:44.096Z,16.93
2018-05-07T06:16:44.010Z,16.98
2018-05-07T06:17:43.936Z,17.00
2018-05-07T06:18:43.860Z,16.93
2018-05-07T06:19:43.786Z,16.98
2018-05-07T06:20:43.700Z,17.08
2018-05-07T06:21:43.624Z,17.16
2018-05-07T06:22:43.552Z,17.14
2018-05-07T06:23:43.475Z,17.31
2018-05-07T06:24:43.386Z,17.36
2018-05-07T06:25:43.315Z,17.34
2018-05-07T06:26:43.234Z,17.46
2018-05-07T06:27:43.174Z,17.44
2018-05-07T06:28:43.089Z,17.44
2018-05-07T06:29:43.009Z,17.49
2018-05-07T06:30:42.960Z,17.41
2018-05-07T06:31:42.851Z,17.49
2018-05-07T06:32:42.776Z,17.54
2018-05-07T06:33:42.699Z,17.58
2018-05-07T06:34:42.611Z,17.52
2018-05-07T06:35:42.535Z,17.51
2018-05-07T06:36:42.463Z,17.66
2018-05-07T06:37:42.385Z,17.71
2018-05-07T06:38:42.311Z,17.74
2018-05-07T06:39:42.228Z,17.75
2018-05-07T06:40:42.163Z,17.77
2018-05-07T06:41:42.076Z,17.77
2018-05-07T06:42:42.004Z,17.84
2018-05-07T06:43:41.928Z,17.87
2018-05-07T06:44:41.838Z,17.92
2018-05-07T06:45:41.827Z,17.95
2018-05-07T06:46:41.689Z,18.02
2018-05-07T06:47:41.614Z,17.95
2018-05-07T06:48:41.539Z,18.10
2018-05-07T06:49:41.464Z,18.12
2018-05-07T06:50:41.378Z,18.21
2018-05-07T06:51:41.306Z,18.25
2018-05-07T06:52:41.228Z,18.33
2018-05-07T06:53:41.153Z,18.41
2018-05-07T06:54:41.087Z,18.45
2018-05-07T06:55:41.003Z,18.54
2018-05-07T06:56:40.914Z,18.51
2018-05-07T06:57:40.851Z,18.48
2018-05-07T06:58:40.764Z,18.65
2018-05-07T06:59:40.692Z,18.62
2018-05-07T07:00:40.616Z,18.67
2018-05-07T07:01:40.541Z,18.72
2018-05-07T07:02:40.588Z,18.67
2018-05-07T07:03:40.380Z,18.73
2018-05-07T07:04:40.302Z,18.70
2018-05-07T07:05:40.227Z,18.90
2018-05-07T07:06:40.153Z,18.90
2018-05-07T07:07:40.078Z,18.98
2018-05-07T07:08:40.059Z,19.19
2018-05-07T07:09:39.931Z,19.32
2018-05-07T07:10:39.854Z,19.33
2018-05-07T07:11:39.781Z,19.33
2018-05-07T07:12:39.694Z,19.33
2018-05-07T07:13:39.616Z,19.33
2018-05-07T07:14:39.541Z,19.37
2018-05-07T07:15:39.467Z,19.41
2018-05-07T07:17:21.518Z,19.46
2018-05-07T07:18:21.442Z,19.73
2018-05-07T07:19:21.354Z,19.88
2018-05-07T07:20:21.282Z,20.29
2018-05-07T07:21:21.206Z,20.73
2018-05-07T07:22:21.147Z,21.37
2018-05-07T07:23:21.056Z,21.69
2018-05-07T07:24:20.980Z,21.72
2018-05-07T07:25:20.905Z,21.74
2018-05-07T07:26:20.833Z,21.86
2018-05-07T07:27:20.756Z,22.51
2018-05-07T07:28:20.715Z,22.85
2018-05-07T07:29:20.606Z,22.55
2018-05-07T07:30:20.532Z,22.55
2018-05-07T07:31:20.463Z,23.31
2018-05-07T07:32:20.382Z,23.73
2018-05-07T08:16:11.048Z,26.76
2018-05-07T08:17:09.972Z,26.48
2018-05-07T08:22:22.675Z,26.05
2018-05-07T08:23:22.613Z,25.73
2018-05-07T08:24:22.549Z,26.18
2018-05-07T08:25:22.488Z,26.67
2018-05-07T08:26:22.415Z,26.88
2018-05-07T08:27:22.350Z,26.66
2018-05-07T08:28:22.290Z,26.21
2018-05-07T08:29:22.212Z,26.35
2018-05-07T08:30:22.170Z,26.20
2018-05-07T08:31:22.089Z,26.75
2018-05-07T08:32:22.024Z,27.21
2018-05-07T08:33:21.952Z,26.21
2018-05-07T08:34:21.890Z,25.91
2018-05-07T08:35:21.826Z,26.33
2018-05-07T08:36:21.764Z,25.92
2018-05-07T08:37:21.709Z,25.45
2018-05-07T08:38:21.626Z,25.20
2018-05-07T08:39:21.565Z,25.50
2018-05-07T08:40:21.502Z,25.25
2018-05-07T08:41:21.438Z,25.58
2018-05-07T08:42:21.367Z,25.92
2018-05-07T08:43:21.300Z,25.45
2018-05-07T08:44:21.239Z,25.23
2018-05-07T08:45:21.177Z,25.24
2018-05-07T08:46:21.105Z,25.09
2018-05-07T08:47:21.040Z,25.35
2018-05-07T08:48:20.978Z,25.69
2018-05-07T08:49:20.915Z,25.08
2018-05-07T08:50:20.840Z,25.09
2018-05-07T08:51:20.775Z,25.13
2018-05-07T08:52:20.715Z,25.27
2018-05-07T08:53:20.652Z,25.69
2018-05-07T08:54:20.801Z,26.18
2018-05-07T08:55:20.515Z,25.85
2018-05-07T08:56:20.452Z,25.10
2018-05-07T08:57:20.392Z,25.17
2018-05-07T08:58:20.328Z,25.79
2018-05-07T08:59:20.256Z,26.07
2018-05-07T09:00:20.199Z,26.37
2018-05-07T09:01:20.130Z,26.12
2018-05-07T09:02:20.059Z,26.40
2018-05-07T09:03:19.991Z,26.66
2018-05-07T09:04:19.927Z,25.99
2018-05-07T09:05:19.868Z,25.94
2018-05-07T09:06:19.805Z,26.17
2018-05-07T09:07:19.731Z,26.21
2018-05-07T09:08:19.671Z,25.94
2018-05-07T09:09:19.605Z,26.43
2018-05-07T09:10:19.544Z,26.50
2018-05-07T09:11:19.468Z,26.89
2018-05-07T09:12:19.406Z,26.50
2018-05-07T09:13:19.341Z,26.54
2018-05-07T09:14:19.279Z,26.69
2018-05-07T09:15:19.313Z,27.09
2018-05-07T09:16:19.142Z,26.99
2018-05-07T09:17:19.081Z,26.50
2018-05-07T09:18:19.019Z,26.48
2018-05-07T09:19:18.957Z,26.66
2018-05-07T09:20:18.899Z,26.97
2018-05-07T09:21:18.830Z,27.36
2018-05-07T09:22:18.757Z,27.51
2018-05-07T09:23:18.693Z,27.63
2018-05-07T09:24:18.632Z,28.04
2018-05-07T09:25:18.570Z,28.49
2018-05-07T09:26:18.512Z,27.84
2018-05-07T09:27:18.447Z,27.10
2018-05-07T09:28:18.382Z,26.20
2018-05-07T09:29:18.318Z,26.75
2018-05-07T09:30:18.244Z,27.21
2018-05-07T09:31:18.181Z,27.67
2018-05-07T09:32:18.119Z,27.99
2018-05-07T09:33:18.059Z,28.44
2018-05-07T09:34:17.996Z,28.33
2018-05-07T09:35:17.933Z,27.96
2018-05-07T10:15:54.910Z,25.18
2018-05-07T10:39:22.876Z,26.18
2018-05-07T10:57:31.677Z,27.59
2018-05-07T10:59:55.864Z,27.99
2018-05-07T11:00:55.802Z,27.90
2018-05-07T11:01:55.739Z,28.27
2018-05-07T11:02:55.680Z,27.79
2018-05-07T11:03:55.620Z,27.94
2018-05-07T11:04:55.541Z,28.24
2018-05-07T11:05:55.480Z,28.09
2018-05-07T11:08:19.679Z,28.22
2018-05-07T11:11:26.284Z,28.59
2018-05-07T11:12:26.017Z,29.18
2018-05-07T11:13:25.955Z,29.11
2018-05-07T11:14:25.896Z,29.37
2018-05-07T11:15:26.182Z,27.66
2018-05-07T11:16:25.769Z,28.00
2018-05-07T11:17:25.707Z,27.62
2018-05-07T11:18:25.641Z,27.50
2018-05-07T11:20:49.841Z,28.39
2018-05-07T11:21:49.980Z,28.15
2018-05-07T11:24:13.982Z,29.00
2018-05-07T11:25:13.917Z,29.05
2018-05-07T11:27:40.742Z,28.73
2018-05-07T11:28:38.055Z,29.11
2018-05-07T11:29:38.007Z,29.08
2018-05-07T11:30:37.933Z,29.73
2018-05-07T11:31:37.870Z,29.43
2018-05-07T11:32:37.808Z,29.79
2018-05-07T11:33:37.745Z,29.45
2018-05-07T11:34:37.682Z,29.82
2018-05-07T11:35:37.618Z,28.90
2018-05-07T11:36:37.557Z,27.99
2018-05-07T11:37:37.507Z,28.06
2018-05-07T11:38:37.438Z,28.03
2018-05-07T11:39:37.375Z,28.27
2018-05-07T11:40:37.309Z,27.72
2018-05-07T11:41:37.248Z,27.90
2018-05-07T11:42:37.197Z,27.94
2018-05-07T11:43:37.134Z,28.86
2018-05-07T11:44:37.072Z,28.44
2018-05-07T11:45:37.010Z,28.34
2018-05-07T11:46:36.944Z,28.96
2018-05-07T11:47:36.988Z,28.83
2018-05-07T11:48:36.832Z,28.76
2018-05-07T11:49:36.758Z,28.29
2018-05-07T11:50:36.699Z,28.34
2018-05-07T11:51:36.636Z,28.78
2018-05-07T11:52:36.572Z,28.09
2018-05-07T11:53:36.516Z,28.17
2018-05-07T11:54:36.454Z,27.79
2018-05-07T11:55:36.384Z,28.06
2018-05-07T11:56:36.322Z,27.81
2018-05-07T11:57:36.259Z,28.46
2018-05-07T11:58:36.196Z,28.88
2018-05-07T11:59:36.135Z,28.98
2018-05-07T12:00:36.071Z,29.76
2018-05-07T12:01:36.009Z,29.33
2018-05-07T12:02:36.038Z,29.86
2018-05-07T12:03:35.887Z,29.95
2018-05-07T12:04:35.824Z,29.73
2018-05-07T12:05:35.761Z,29.15
2018-05-07T12:06:35.697Z,28.41
2018-05-07T12:07:35.636Z,28.90
2018-05-07T12:08:35.585Z,28.78
2018-05-07T12:09:35.518Z,28.81
2018-05-07T12:10:35.450Z,28.70
2018-05-07T12:11:35.387Z,28.37
2018-05-07T12:12:35.324Z,28.61
2018-05-07T12:13:35.262Z,29.18
2018-05-07T12:14:35.200Z,29.41
2018-05-07T12:15:35.138Z,29.90
2018-05-07T12:16:35.075Z,29.67
2018-05-07T12:17:35.014Z,29.28
2018-05-07T12:18:34.949Z,28.14
2018-05-07T12:19:34.887Z,28.67
2018-05-07T12:20:34.824Z,29.12
2018-05-07T12:21:34.761Z,29.43
2018-05-07T12:22:34.700Z,29.94
2018-05-07T12:23:34.639Z,30.49
2018-05-07T12:24:34.576Z,30.83
2018-05-07T12:25:34.514Z,30.46
2018-05-07T12:26:34.451Z,30.38
2018-05-07T12:27:34.390Z,29.85
2018-05-07T12:28:34.324Z,29.95
2018-05-07T12:29:34.263Z,29.55
2018-05-07T12:30:34.206Z,29.57
2018-05-07T12:31:34.248Z,29.78
2018-05-07T12:32:34.077Z,29.71
2018-05-07T12:33:34.016Z,30.08
2018-05-07T12:34:33.952Z,29.98
2018-05-07T12:35:33.892Z,30.05
2018-05-07T12:36:33.826Z,29.80
2018-05-07T12:37:33.792Z,29.82
2018-05-07T12:38:33.716Z,29.24
2018-05-07T12:39:33.654Z,29.33
2018-05-07T12:40:33.593Z,29.23
2018-05-07T12:41:33.528Z,29.39
2018-05-07T12:42:33.464Z,29.73
2018-05-07T12:43:33.404Z,30.04
2018-05-07T12:44:33.340Z,30.49
2018-05-07T12:45:33.276Z,30.24
2018-05-07T12:46:33.215Z,29.53
2018-05-07T12:47:33.152Z,29.08
2018-05-07T12:48:33.090Z,29.06
2018-05-07T12:49:33.028Z,29.15
2018-05-07T12:50:32.967Z,28.73
2018-05-07T12:51:32.905Z,29.00
2018-05-07T12:52:32.843Z,28.93
2018-05-07T12:53:32.779Z,29.79
2018-05-07T12:54:32.716Z,29.85
2018-05-07T12:55:32.666Z,30.01
2018-05-07T12:56:32.594Z,29.71
2018-05-07T12:57:32.528Z,29.76
2018-05-07T12:58:32.468Z,29.14
2018-05-07T12:59:32.418Z,29.37
2018-05-07T13:00:32.343Z,29.04
2018-05-07T13:01:32.294Z,29.16
2018-05-07T13:02:32.218Z,29.12
2018-05-07T13:03:32.156Z,29.73
2018-05-07T13:04:32.095Z,30.27
2018-05-07T13:05:32.031Z,30.38
2018-05-07T13:06:31.967Z,30.89
2018-05-07T13:07:31.906Z,30.38
2018-05-07T13:08:31.842Z,30.11
2018-05-07T13:09:31.780Z,29.42
2018-05-07T13:10:31.731Z,29.27
2018-05-07T13:11:31.758Z,29.64
2018-05-07T13:12:31.607Z,29.98
2018-05-07T13:13:31.545Z,29.70
2018-05-07T13:14:31.480Z,30.04
2018-05-07T13:15:31.418Z,29.80
2018-05-07T13:16:31.356Z,29.67
2018-05-07T13:17:31.298Z,30.23
2018-05-07T13:18:31.230Z,29.65
2018-05-07T13:19:31.168Z,29.43
2018-05-07T13:20:31.105Z,29.02
2018-05-07T13:21:31.044Z,29.39
2018-05-07T13:22:30.983Z,28.90
2018-05-07T13:23:30.921Z,28.70
2018-05-07T13:24:30.872Z,28.56
2018-05-07T13:25:30.800Z,28.46
2018-05-07T13:26:30.733Z,28.22
2018-05-07T13:27:30.669Z,27.81
2018-05-07T13:28:30.607Z,27.81
2018-05-07T13:29:30.544Z,27.72
2018-05-07T13:30:30.483Z,27.40
2018-05-07T13:31:30.423Z,26.76
2018-05-07T13:32:30.372Z,26.32
2018-05-07T13:33:30.300Z,26.06
2018-05-07T13:34:30.234Z,26.10
2018-05-07T13:35:30.172Z,26.02
2018-05-07T13:36:30.115Z,25.67
2018-05-07T13:37:30.036Z,25.62
2018-05-07T13:38:29.971Z,25.39
2018-05-07T13:39:29.907Z,25.43
2018-05-07T13:40:29.846Z,25.58
2018-05-07T13:41:29.782Z,25.42
2018-05-07T13:42:29.722Z,25.24
2018-05-07T13:43:29.647Z,25.28
2018-05-07T13:44:29.585Z,25.40
2018-05-07T13:45:29.522Z,25.33
2018-05-07T13:46:29.457Z,25.09
2018-05-07T13:47:29.383Z,25.14
2018-05-07T13:48:29.322Z,25.23
2018-05-07T13:49:29.247Z,25.23
2018-05-07T13:50:29.183Z,25.06
2018-05-07T13:51:29.121Z,25.06
2018-05-07T13:52:29.047Z,25.09
2018-05-07T13:53:28.986Z,25.10
2018-05-07T13:54:28.910Z,25.10
2018-05-07T13:55:28.849Z,25.33
2018-05-07T13:56:28.775Z,25.42
2018-05-07T13:57:28.711Z,25.42
2018-05-07T13:58:28.633Z,25.50
2018-05-07T13:59:28.573Z,25.64
2018-05-07T14:00:28.498Z,25.62
2018-05-07T14:01:28.439Z,25.75
2018-05-07T14:02:28.362Z,25.67
2018-05-07T14:03:28.300Z,25.33
2018-05-07T14:04:28.225Z,25.39
2018-05-07T14:05:28.162Z,25.18
2018-05-07T14:06:28.099Z,25.28
2018-05-07T14:07:28.012Z,25.27
2018-05-07T14:08:27.972Z,25.25
2018-05-07T14:09:27.875Z,25.20
2018-05-07T14:10:27.799Z,25.14
2018-05-07T14:11:27.736Z,25.05
2018-05-07T14:12:27.661Z,25.08
2018-05-07T14:13:27.585Z,25.02
2018-05-07T14:14:27.528Z,24.81
2018-05-07T14:15:27.452Z,24.96
2018-05-07T14:16:27.376Z,24.93
2018-05-07T14:17:27.313Z,24.98
2018-05-07T14:18:27.256Z,25.06
2018-05-07T14:19:27.161Z,25.06
2018-05-07T14:20:27.104Z,25.20
2018-05-07T14:21:27.026Z,25.33
2018-05-07T14:22:26.950Z,25.35
2018-05-07T14:23:26.887Z,25.42
2018-05-07T14:24:26.812Z,25.57
2018-05-07T14:25:26.738Z,25.46
2018-05-07T14:26:26.679Z,25.40
2018-05-07T14:27:26.602Z,25.47
2018-05-07T14:28:26.528Z,25.36
2018-05-07T14:29:26.455Z,25.24
2018-05-07T14:30:26.387Z,25.23
2018-05-07T14:31:26.315Z,25.06
2018-05-07T14:32:26.239Z,25.06
2018-05-07T14:33:26.258Z,25.10
2018-05-07T14:34:26.103Z,25.23
2018-05-07T14:35:26.041Z,25.23
2018-05-07T14:36:25.982Z,25.28
2018-05-07T14:37:25.891Z,25.42
2018-05-07T14:38:25.813Z,25.21
2018-05-07T14:39:25.752Z,25.08
2018-05-07T14:40:25.678Z,25.23
2018-05-07T14:41:25.603Z,25.06
2018-05-07T14:42:25.541Z,24.98
2018-05-07T14:43:25.467Z,25.06
2018-05-07T14:44:25.391Z,25.17
2018-05-07T14:45:25.319Z,25.30
2018-05-07T14:46:25.252Z,25.21
2018-05-07T14:47:25.177Z,25.17
2018-05-07T14:48:25.103Z,25.28
2018-05-07T14:49:25.028Z,25.33
2018-05-07T14:50:24.969Z,25.38
2018-05-07T14:51:24.892Z,25.36
2018-05-07T14:52:24.829Z,25.36
2018-05-07T14:53:24.744Z,25.33
2018-05-07T14:54:24.683Z,25.30
2018-05-07T14:55:24.606Z,25.28
2018-05-07T14:56:24.534Z,25.21
2018-05-07T14:57:24.468Z,25.13
2018-05-07T14:58:24.391Z,25.20
2018-05-07T14:59:24.317Z,25.13
2018-05-07T15:00:24.242Z,24.99
2018-05-07T15:01:24.179Z,25.00
2018-05-07T15:02:24.106Z,24.90
2018-05-07T15:03:24.031Z,24.83
2018-05-07T15:04:23.968Z,24.98
2018-05-07T15:05:23.893Z,24.77
2018-05-07T15:06:23.830Z,24.98
2018-05-07T15:07:23.742Z,24.91